sensor_id;sensor_type;location;lat;lon;timestamp;P1;durP1;ratioP1;P2;durP2;ratioP2
62024;SDS011;47978;49.118;12.146;2022-08-16T00:02:22;4.05;;;2.47;;
62024;SDS011;47978;49.118;12.146;2022-08-16T00:04:48;3.58;;;2.25;;
62024;SDS011;47978;49.118;12.146;2022-08-16T00:07:16;3.10;;;2.20;;
62024;SDS011;47978;49.118;12.146;2022-08-16T00:09:43;3.20;;;2.50;;
62024;SDS011;47978;49.118;12.146;2022-08-16T00:12:10;4.20;;;2.50;;
62024;SDS011;47978;49.118;12.146;2022-08-16T00:14:43;5.13;;;2.75;;
62024;SDS011;47978;49.118;12.146;2022-08-16T00:17:10;4.22;;;2.80;;
62024;SDS011;47978;49.118;12.146;2022-08-16T00:19:45;3.50;;;2.55;;
62024;SDS011;47978;49.118;12.146;2022-08-16T00:22:18;3.72;;;2.22;;
62024;SDS011;47978;49.118;12.146;2022-08-16T00:24:49;2.80;;;2.38;;
62024;SDS011;47978;49.118;12.146;2022-08-16T00:27:16;3.17;;;2.28;;
62024;SDS011;47978;49.118;12.146;2022-08-16T00:29:43;3.42;;;2.17;;
62024;SDS011;47978;49.118;12.146;2022-08-16T00:32:11;3.33;;;2.50;;
62024;SDS011;47978;49.118;12.146;2022-08-16T00:34:43;3.38;;;2.70;;
62024;SDS011;47978;49.118;12.146;2022-08-16T00:37:21;3.28;;;2.42;;
62024;SDS011;47978;49.118;12.146;2022-08-16T00:39:50;4.25;;;2.42;;
62024;SDS011;47978;49.118;12.146;2022-08-16T00:42:24;3.10;;;2.30;;
62024;SDS011;47978;49.118;12.146;2022-08-16T00:44:58;3.65;;;2.83;;
62024;SDS011;47978;49.118;12.146;2022-08-16T00:47:34;5.03;;;2.75;;
62024;SDS011;47978;49.118;12.146;2022-08-16T00:50:04;3.65;;;2.70;;
62024;SDS011;47978;49.118;12.146;2022-08-16T00:52:38;6.03;;;2.88;;
62024;SDS011;47978;49.118;12.146;2022-08-16T00:55:17;4.20;;;2.67;;
62024;SDS011;47978;49.118;12.146;2022-08-16T00:57:45;5.70;;;2.50;;
62024;SDS011;47978;49.118;12.146;2022-08-16T01:00:25;3.17;;;2.45;;
62024;SDS011;47978;49.118;12.146;2022-08-16T01:02:54;3.53;;;2.33;;
62024;SDS011;47978;49.118;12.146;2022-08-16T01:05:21;4.03;;;2.67;;
62024;SDS011;47978;49.118;12.146;2022-08-16T01:07:51;3.40;;;2.42;;
62024;SDS011;47978;49.118;12.146;2022-08-16T01:10:19;3.47;;;2.58;;
62024;SDS011;47978;49.118;12.146;2022-08-16T01:12:57;3.63;;;2.85;;
62024;SDS011;47978;49.118;12.146;2022-08-16T01:15:25;4.55;;;2.67;;
62024;SDS011;47978;49.118;12.146;2022-08-16T01:17:55;4.13;;;2.70;;
62024;SDS011;47978;49.118;12.146;2022-08-16T01:20:23;2.85;;;2.42;;
62024;SDS011;47978;49.118;12.146;2022-08-16T01:22:58;3.80;;;2.80;;
62024;SDS011;47978;49.118;12.146;2022-08-16T01:25:36;4.78;;;2.97;;
62024;SDS011;47978;49.118;12.146;2022-08-16T01:30:45;6.15;;;2.50;;
62024;SDS011;47978;49.118;12.146;2022-08-16T01:33:16;5.43;;;2.92;;
62024;SDS011;47978;49.118;12.146;2022-08-16T01:35:46;4.38;;;2.92;;
62024;SDS011;47978;49.118;12.146;2022-08-16T01:38:19;5.63;;;2.97;;
62024;SDS011;47978;49.118;12.146;2022-08-16T01:40:54;5.70;;;2.92;;
62024;SDS011;47978;49.118;12.146;2022-08-16T01:43:27;3.60;;;2.78;;
62024;SDS011;47978;49.118;12.146;2022-08-16T01:45:57;4.15;;;2.90;;
62024;SDS011;47978;49.118;12.146;2022-08-16T01:48:45;4.10;;;2.95;;
62024;SDS011;47978;49.118;12.146;2022-08-16T01:51:12;3.97;;;2.70;;
62024;SDS011;47978;49.118;12.146;2022-08-16T01:53:42;3.92;;;2.53;;
62024;SDS011;47978;49.118;12.146;2022-08-16T01:56:10;9.23;;;3.45;;
62024;SDS011;47978;49.118;12.146;2022-08-16T01:58:49;6.20;;;2.78;;
62024;SDS011;47978;49.118;12.146;2022-08-16T02:01:16;4.03;;;2.83;;
62024;SDS011;47978;49.118;12.146;2022-08-16T02:03:43;3.72;;;2.90;;
62024;SDS011;47978;49.118;12.146;2022-08-16T02:06:15;4.30;;;3.00;;
62024;SDS011;47978;49.118;12.146;2022-08-16T02:09:00;3.63;;;2.70;;
62024;SDS011;47978;49.118;12.146;2022-08-16T02:11:32;4.47;;;2.92;;
62024;SDS011;47978;49.118;12.146;2022-08-16T02:14:14;4.75;;;3.28;;
62024;SDS011;47978;49.118;12.146;2022-08-16T02:16:43;3.42;;;2.85;;
62024;SDS011;47978;49.118;12.146;2022-08-16T02:19:10;4.15;;;2.88;;
62024;SDS011;47978;49.118;12.146;2022-08-16T02:21:42;9.38;;;4.80;;
62024;SDS011;47978;49.118;12.146;2022-08-16T02:24:30;4.93;;;3.40;;
62024;SDS011;47978;49.118;12.146;2022-08-16T02:27:07;4.75;;;3.13;;
62024;SDS011;47978;49.118;12.146;2022-08-16T02:29:34;6.28;;;3.13;;
62024;SDS011;47978;49.118;12.146;2022-08-16T02:32:01;6.35;;;3.50;;
62024;SDS011;47978;49.118;12.146;2022-08-16T02:34:48;3.45;;;2.85;;
62024;SDS011;47978;49.118;12.146;2022-08-16T02:37:15;4.00;;;3.00;;
62024;SDS011;47978;49.118;12.146;2022-08-16T02:39:46;4.60;;;3.33;;
62024;SDS011;47978;49.118;12.146;2022-08-16T02:42:20;4.82;;;3.17;;
62024;SDS011;47978;49.118;12.146;2022-08-16T02:44:47;3.53;;;2.70;;
62024;SDS011;47978;49.118;12.146;2022-08-16T02:47:14;5.38;;;3.15;;
62024;SDS011;47978;49.118;12.146;2022-08-16T02:49:51;4.57;;;3.38;;
62024;SDS011;47978;49.118;12.146;2022-08-16T02:52:38;5.30;;;3.35;;
62024;SDS011;47978;49.118;12.146;2022-08-16T02:55:09;4.25;;;3.60;;
62024;SDS011;47978;49.118;12.146;2022-08-16T03:00:19;5.40;;;3.60;;
62024;SDS011;47978;49.118;12.146;2022-08-16T03:03:00;5.38;;;3.67;;
62024;SDS011;47978;49.118;12.146;2022-08-16T03:05:28;5.22;;;3.42;;
62024;SDS011;47978;49.118;12.146;2022-08-16T03:07:56;4.82;;;2.90;;
62024;SDS011;47978;49.118;12.146;2022-08-16T03:10:25;5.03;;;3.38;;
62024;SDS011;47978;49.118;12.146;2022-08-16T03:13:00;5.70;;;3.42;;
62024;SDS011;47978;49.118;12.146;2022-08-16T03:15:28;4.10;;;3.10;;
62024;SDS011;47978;49.118;12.146;2022-08-16T03:17:56;5.68;;;3.67;;
62024;SDS011;47978;49.118;12.146;2022-08-16T03:20:23;6.38;;;3.58;;
62024;SDS011;47978;49.118;12.146;2022-08-16T03:22:58;4.53;;;3.53;;
62024;SDS011;47978;49.118;12.146;2022-08-16T03:25:24;5.07;;;3.70;;
62024;SDS011;47978;49.118;12.146;2022-08-16T03:28:09;3.72;;;2.95;;
62024;SDS011;47978;49.118;12.146;2022-08-16T03:30:36;4.90;;;3.53;;
62024;SDS011;47978;49.118;12.146;2022-08-16T03:33:03;7.13;;;3.50;;
62024;SDS011;47978;49.118;12.146;2022-08-16T03:35:33;4.47;;;3.13;;
62024;SDS011;47978;49.118;12.146;2022-08-16T03:38:08;5.72;;;3.60;;
62024;SDS011;47978;49.118;12.146;2022-08-16T03:40:56;6.10;;;3.42;;
62024;SDS011;47978;49.118;12.146;2022-08-16T03:43:25;4.50;;;3.42;;
62024;SDS011;47978;49.118;12.146;2022-08-16T03:46:12;6.47;;;3.60;;
62024;SDS011;47978;49.118;12.146;2022-08-16T03:48:58;4.78;;;3.63;;
62024;SDS011;47978;49.118;12.146;2022-08-16T03:51:25;5.95;;;3.38;;
62024;SDS011;47978;49.118;12.146;2022-08-16T03:53:52;4.65;;;3.50;;
62024;SDS011;47978;49.118;12.146;2022-08-16T03:56:26;6.45;;;4.32;;
62024;SDS011;47978;49.118;12.146;2022-08-16T03:58:57;6.80;;;3.42;;
62024;SDS011;47978;49.118;12.146;2022-08-16T04:01:25;5.78;;;4.15;;
62024;SDS011;47978;49.118;12.146;2022-08-16T04:03:55;6.15;;;4.07;;
62024;SDS011;47978;49.118;12.146;2022-08-16T04:06:21;6.22;;;3.63;;
62024;SDS011;47978;49.118;12.146;2022-08-16T04:08:48;5.40;;;3.55;;
62024;SDS011;47978;49.118;12.146;2022-08-16T04:11:16;5.70;;;3.80;;
62024;SDS011;47978;49.118;12.146;2022-08-16T04:13:43;5.63;;;4.03;;
62024;SDS011;47978;49.118;12.146;2022-08-16T04:16:31;4.50;;;3.58;;
62024;SDS011;47978;49.118;12.146;2022-08-16T04:18:59;7.75;;;3.85;;
62024;SDS011;47978;49.118;12.146;2022-08-16T04:21:28;4.47;;;3.80;;
62024;SDS011;47978;49.118;12.146;2022-08-16T04:23:57;5.72;;;3.90;;
62024;SDS011;47978;49.118;12.146;2022-08-16T04:26:23;7.60;;;3.70;;
62024;SDS011;47978;49.118;12.146;2022-08-16T04:28:56;7.63;;;3.53;;
62024;SDS011;47978;49.118;12.146;2022-08-16T04:31:45;7.15;;;3.42;;
62024;SDS011;47978;49.118;12.146;2022-08-16T04:34:22;6.38;;;4.18;;
62024;SDS011;47978;49.118;12.146;2022-08-16T04:36:50;5.32;;;3.85;;
62024;SDS011;47978;49.118;12.146;2022-08-16T04:39:18;7.00;;;3.92;;
62024;SDS011;47978;49.118;12.146;2022-08-16T04:41:49;7.00;;;4.00;;
62024;SDS011;47978;49.118;12.146;2022-08-16T04:44:22;5.07;;;3.50;;
62024;SDS011;47978;49.118;12.146;2022-08-16T04:47:10;5.53;;;3.60;;
62024;SDS011;47978;49.118;12.146;2022-08-16T04:49:49;5.13;;;3.60;;
62024;SDS011;47978;49.118;12.146;2022-08-16T04:52:17;5.82;;;3.78;;
62024;SDS011;47978;49.118;12.146;2022-08-16T04:55:00;6.35;;;3.63;;
62024;SDS011;47978;49.118;12.146;2022-08-16T04:57:28;8.13;;;3.45;;
62024;SDS011;47978;49.118;12.146;2022-08-16T04:59:55;6.45;;;4.18;;
62024;SDS011;47978;49.118;12.146;2022-08-16T05:02:24;5.60;;;3.30;;
62024;SDS011;47978;49.118;12.146;2022-08-16T05:05:08;5.07;;;4.25;;
62024;SDS011;47978;49.118;12.146;2022-08-16T05:07:43;4.88;;;4.13;;
62024;SDS011;47978;49.118;12.146;2022-08-16T05:10:25;7.70;;;3.72;;
62024;SDS011;47978;49.118;12.146;2022-08-16T05:12:52;4.53;;;3.63;;
62024;SDS011;47978;49.118;12.146;2022-08-16T05:15:19;5.15;;;3.60;;
62024;SDS011;47978;49.118;12.146;2022-08-16T05:17:48;6.97;;;3.95;;
62024;SDS011;47978;49.118;12.146;2022-08-16T05:20:25;6.38;;;3.38;;
62024;SDS011;47978;49.118;12.146;2022-08-16T05:23:11;5.97;;;3.60;;
62024;SDS011;47978;49.118;12.146;2022-08-16T05:25:40;4.38;;;3.42;;
62024;SDS011;47978;49.118;12.146;2022-08-16T05:28:13;4.78;;;3.65;;
62024;SDS011;47978;49.118;12.146;2022-08-16T05:30:40;5.07;;;3.97;;
62024;SDS011;47978;49.118;12.146;2022-08-16T05:33:09;6.07;;;3.25;;
62024;SDS011;47978;49.118;12.146;2022-08-16T05:35:42;7.10;;;3.55;;
62024;SDS011;47978;49.118;12.146;2022-08-16T05:38:20;5.40;;;3.70;;
62024;SDS011;47978;49.118;12.146;2022-08-16T05:41:01;6.47;;;3.50;;
62024;SDS011;47978;49.118;12.146;2022-08-16T05:43:29;4.35;;;3.22;;
62024;SDS011;47978;49.118;12.146;2022-08-16T05:46:08;6.95;;;3.22;;
62024;SDS011;47978;49.118;12.146;2022-08-16T05:48:57;4.97;;;3.50;;
62024;SDS011;47978;49.118;12.146;2022-08-16T05:51:29;4.55;;;3.45;;
62024;SDS011;47978;49.118;12.146;2022-08-16T05:54:04;5.15;;;3.10;;
62024;SDS011;47978;49.118;12.146;2022-08-16T05:56:31;6.18;;;3.45;;
62024;SDS011;47978;49.118;12.146;2022-08-16T05:59:02;4.60;;;2.90;;
62024;SDS011;47978;49.118;12.146;2022-08-16T06:01:31;5.13;;;3.30;;
62024;SDS011;47978;49.118;12.146;2022-08-16T06:04:05;7.68;;;3.33;;
62024;SDS011;47978;49.118;12.146;2022-08-16T06:06:53;5.10;;;3.08;;
62024;SDS011;47978;49.118;12.146;2022-08-16T06:09:22;4.38;;;3.17;;
62024;SDS011;47978;49.118;12.146;2022-08-16T06:11:50;4.68;;;3.58;;
62024;SDS011;47978;49.118;12.146;2022-08-16T06:14:17;5.07;;;3.00;;
62024;SDS011;47978;49.118;12.146;2022-08-16T06:16:44;4.85;;;3.42;;
62024;SDS011;47978;49.118;12.146;2022-08-16T06:19:17;3.95;;;3.50;;
62024;SDS011;47978;49.118;12.146;2022-08-16T06:21:48;7.97;;;3.75;;
62024;SDS011;47978;49.118;12.146;2022-08-16T06:24:21;7.60;;;3.65;;
62024;SDS011;47978;49.118;12.146;2022-08-16T06:27:07;7.25;;;4.60;;
62024;SDS011;47978;49.118;12.146;2022-08-16T06:29:34;7.38;;;4.35;;
62024;SDS011;47978;49.118;12.146;2022-08-16T06:32:01;6.35;;;4.07;;
62024;SDS011;47978;49.118;12.146;2022-08-16T06:34:31;6.72;;;4.05;;
62024;SDS011;47978;49.118;12.146;2022-08-16T06:37:17;6.15;;;3.50;;
62024;SDS011;47978;49.118;12.146;2022-08-16T06:39:44;5.45;;;3.60;;
62024;SDS011;47978;49.118;12.146;2022-08-16T06:42:15;7.93;;;3.63;;
62024;SDS011;47978;49.118;12.146;2022-08-16T06:44:44;6.85;;;3.20;;
62024;SDS011;47978;49.118;12.146;2022-08-16T06:47:11;4.22;;;3.33;;
62024;SDS011;47978;49.118;12.146;2022-08-16T06:49:43;6.25;;;3.70;;
62024;SDS011;47978;49.118;12.146;2022-08-16T06:52:19;5.20;;;3.35;;
62024;SDS011;47978;49.118;12.146;2022-08-16T06:55:07;6.30;;;4.00;;
62024;SDS011;47978;49.118;12.146;2022-08-16T06:57:38;4.32;;;3.10;;
62024;SDS011;47978;49.118;12.146;2022-08-16T07:00:07;4.93;;;3.50;;
62024;SDS011;47978;49.118;12.146;2022-08-16T07:02:49;3.83;;;3.10;;
62024;SDS011;47978;49.118;12.146;2022-08-16T07:05:18;3.92;;;3.22;;
62024;SDS011;47978;49.118;12.146;2022-08-16T07:08:04;4.15;;;3.15;;
62024;SDS011;47978;49.118;12.146;2022-08-16T07:10:31;4.03;;;3.53;;
62024;SDS011;47978;49.118;12.146;2022-08-16T07:12:58;5.28;;;3.30;;
62024;SDS011;47978;49.118;12.146;2022-08-16T07:17:56;3.70;;;2.78;;
62024;SDS011;47978;49.118;12.146;2022-08-16T07:20:24;6.70;;;3.20;;
62024;SDS011;47978;49.118;12.146;2022-08-16T07:23:00;14.75;;;3.40;;
62024;SDS011;47978;49.118;12.146;2022-08-16T07:25:38;5.72;;;2.80;;
62024;SDS011;47978;49.118;12.146;2022-08-16T07:28:06;3.95;;;2.90;;
62024;SDS011;47978;49.118;12.146;2022-08-16T07:30:37;4.70;;;2.73;;
62024;SDS011;47978;49.118;12.146;2022-08-16T07:33:12;10.40;;;3.08;;
62024;SDS011;47978;49.118;12.146;2022-08-16T07:35:43;4.57;;;3.00;;
62024;SDS011;47978;49.118;12.146;2022-08-16T07:38:15;3.88;;;2.95;;
62024;SDS011;47978;49.118;12.146;2022-08-16T07:40:45;5.15;;;3.08;;
62024;SDS011;47978;49.118;12.146;2022-08-16T07:43:26;4.73;;;3.00;;
62024;SDS011;47978;49.118;12.146;2022-08-16T07:45:54;4.63;;;3.03;;
62024;SDS011;47978;49.118;12.146;2022-08-16T07:48:21;5.03;;;3.20;;
62024;SDS011;47978;49.118;12.146;2022-08-16T07:50:51;3.03;;;2.22;;
62024;SDS011;47978;49.118;12.146;2022-08-16T07:53:24;4.20;;;2.70;;
62024;SDS011;47978;49.118;12.146;2022-08-16T07:55:54;3.78;;;2.80;;
62024;SDS011;47978;49.118;12.146;2022-08-16T07:58:22;5.18;;;2.70;;
62024;SDS011;47978;49.118;12.146;2022-08-16T08:01:00;3.63;;;2.67;;
62024;SDS011;47978;49.118;12.146;2022-08-16T08:03:28;3.70;;;3.10;;
62024;SDS011;47978;49.118;12.146;2022-08-16T08:06:06;3.80;;;2.75;;
62024;SDS011;47978;49.118;12.146;2022-08-16T08:08:37;4.63;;;3.08;;
62024;SDS011;47978;49.118;12.146;2022-08-16T08:11:17;7.20;;;3.70;;
62024;SDS011;47978;49.118;12.146;2022-08-16T08:13:46;5.72;;;3.15;;
62024;SDS011;47978;49.118;12.146;2022-08-16T08:16:13;5.40;;;2.78;;
62024;SDS011;47978;49.118;12.146;2022-08-16T08:21:23;6.90;;;3.33;;
62024;SDS011;47978;49.118;12.146;2022-08-16T08:24:10;4.72;;;2.83;;
62024;SDS011;47978;49.118;12.146;2022-08-16T08:26:40;21.73;;;3.53;;
62024;SDS011;47978;49.118;12.146;2022-08-16T08:29:08;4.93;;;2.65;;
62024;SDS011;47978;49.118;12.146;2022-08-16T08:31:37;35.60;;;4.03;;
62024;SDS011;47978;49.118;12.146;2022-08-16T08:34:05;4.50;;;2.70;;
62024;SDS011;47978;49.118;12.146;2022-08-16T08:36:34;7.57;;;3.00;;
62024;SDS011;47978;49.118;12.146;2022-08-16T08:39:02;7.10;;;3.42;;
62024;SDS011;47978;49.118;12.146;2022-08-16T08:41:38;5.03;;;3.38;;
62024;SDS011;47978;49.118;12.146;2022-08-16T08:44:07;7.55;;;3.03;;
62024;SDS011;47978;49.118;12.146;2022-08-16T08:46:54;16.65;;;3.42;;
62024;SDS011;47978;49.118;12.146;2022-08-16T08:49:26;4.32;;;3.17;;
62024;SDS011;47978;49.118;12.146;2022-08-16T08:52:14;5.15;;;3.13;;
62024;SDS011;47978;49.118;12.146;2022-08-16T08:55:01;3.70;;;2.47;;
62024;SDS011;47978;49.118;12.146;2022-08-16T08:57:34;6.75;;;3.00;;
62024;SDS011;47978;49.118;12.146;2022-08-16T09:00:01;3.33;;;2.72;;
62024;SDS011;47978;49.118;12.146;2022-08-16T09:02:38;5.40;;;2.85;;
62024;SDS011;47978;49.118;12.146;2022-08-16T09:05:06;3.35;;;2.53;;
62024;SDS011;47978;49.118;12.146;2022-08-16T09:07:42;4.10;;;3.00;;
62024;SDS011;47978;49.118;12.146;2022-08-16T09:10:27;4.75;;;2.42;;
62024;SDS011;47978;49.118;12.146;2022-08-16T09:12:55;4.50;;;2.78;;
62024;SDS011;47978;49.118;12.146;2022-08-16T09:15:21;5.72;;;3.10;;
62024;SDS011;47978;49.118;12.146;2022-08-16T09:17:49;6.68;;;2.97;;
62024;SDS011;47978;49.118;12.146;2022-08-16T09:20:19;5.13;;;2.88;;
62024;SDS011;47978;49.118;12.146;2022-08-16T09:22:50;5.35;;;2.70;;
62024;SDS011;47978;49.118;12.146;2022-08-16T09:25:18;6.97;;;3.15;;
62024;SDS011;47978;49.118;12.146;2022-08-16T09:27:58;5.70;;;3.28;;
62024;SDS011;47978;49.118;12.146;2022-08-16T09:30:34;5.38;;;2.90;;
62024;SDS011;47978;49.118;12.146;2022-08-16T09:33:10;4.28;;;2.78;;
62024;SDS011;47978;49.118;12.146;2022-08-16T09:35:38;4.10;;;2.92;;
62024;SDS011;47978;49.118;12.146;2022-08-16T09:38:09;5.68;;;2.97;;
62024;SDS011;47978;49.118;12.146;2022-08-16T09:40:37;5.18;;;2.78;;
62024;SDS011;47978;49.118;12.146;2022-08-16T09:43:08;3.65;;;2.60;;
62024;SDS011;47978;49.118;12.146;2022-08-16T09:45:55;3.25;;;2.55;;
62024;SDS011;47978;49.118;12.146;2022-08-16T09:48:22;3.95;;;2.58;;
62024;SDS011;47978;49.118;12.146;2022-08-16T09:51:09;5.22;;;3.10;;
62024;SDS011;47978;49.118;12.146;2022-08-16T09:53:38;6.20;;;2.70;;
62024;SDS011;47978;49.118;12.146;2022-08-16T09:56:06;5.55;;;3.00;;
62024;SDS011;47978;49.118;12.146;2022-08-16T09:58:38;6.57;;;2.80;;
62024;SDS011;47978;49.118;12.146;2022-08-16T10:01:25;6.00;;;2.90;;
62024;SDS011;47978;49.118;12.146;2022-08-16T10:03:52;8.02;;;2.80;;
62024;SDS011;47978;49.118;12.146;2022-08-16T10:06:28;5.72;;;3.25;;
62024;SDS011;47978;49.118;12.146;2022-08-16T10:09:00;5.47;;;3.00;;
62024;SDS011;47978;49.118;12.146;2022-08-16T10:11:32;5.00;;;2.40;;
62024;SDS011;47978;49.118;12.146;2022-08-16T10:14:15;10.02;;;3.22;;
62024;SDS011;47978;49.118;12.146;2022-08-16T10:16:45;4.28;;;2.78;;
62024;SDS011;47978;49.118;12.146;2022-08-16T10:19:14;3.53;;;3.00;;
62024;SDS011;47978;49.118;12.146;2022-08-16T10:21:44;5.07;;;3.13;;
62024;SDS011;47978;49.118;12.146;2022-08-16T10:24:23;5.03;;;2.80;;
62024;SDS011;47978;49.118;12.146;2022-08-16T10:26:54;4.85;;;2.72;;
62024;SDS011;47978;49.118;12.146;2022-08-16T10:29:40;5.85;;;2.95;;
62024;SDS011;47978;49.118;12.146;2022-08-16T10:32:27;5.80;;;3.05;;
62024;SDS011;47978;49.118;12.146;2022-08-16T10:34:56;13.88;;;3.20;;
62024;SDS011;47978;49.118;12.146;2022-08-16T10:37:23;6.85;;;3.00;;
62024;SDS011;47978;49.118;12.146;2022-08-16T10:40:04;4.68;;;3.20;;
62024;SDS011;47978;49.118;12.146;2022-08-16T10:42:51;4.22;;;2.80;;
62024;SDS011;47978;49.118;12.146;2022-08-16T10:45:18;4.20;;;2.95;;
62024;SDS011;47978;49.118;12.146;2022-08-16T10:47:46;7.38;;;2.97;;
62024;SDS011;47978;49.118;12.146;2022-08-16T10:50:24;5.70;;;2.88;;
62024;SDS011;47978;49.118;12.146;2022-08-16T10:52:51;4.80;;;2.85;;
62024;SDS011;47978;49.118;12.146;2022-08-16T10:55:26;3.35;;;2.70;;
62024;SDS011;47978;49.118;12.146;2022-08-16T10:58:11;4.57;;;3.10;;
62024;SDS011;47978;49.118;12.146;2022-08-16T11:03:11;4.57;;;3.10;;
62024;SDS011;47978;49.118;12.146;2022-08-16T11:05:59;5.88;;;2.78;;
62024;SDS011;47978;49.118;12.146;2022-08-16T11:08:28;11.23;;;3.17;;
62024;SDS011;47978;49.118;12.146;2022-08-16T11:11:03;8.40;;;2.92;;
62024;SDS011;47978;49.118;12.146;2022-08-16T11:13:44;5.50;;;2.67;;
62024;SDS011;47978;49.118;12.146;2022-08-16T11:16:31;3.15;;;2.63;;
62024;SDS011;47978;49.118;12.146;2022-08-16T11:19:18;5.07;;;2.75;;
62024;SDS011;47978;49.118;12.146;2022-08-16T11:21:44;4.55;;;2.80;;
62024;SDS011;47978;49.118;12.146;2022-08-16T11:24:31;6.28;;;2.70;;
62024;SDS011;47978;49.118;12.146;2022-08-16T11:27:10;3.47;;;2.60;;
62024;SDS011;47978;49.118;12.146;2022-08-16T11:29:46;5.93;;;2.65;;
62024;SDS011;47978;49.118;12.146;2022-08-16T11:32:14;5.35;;;2.88;;
62024;SDS011;47978;49.118;12.146;2022-08-16T11:34:45;3.58;;;2.60;;
62024;SDS011;47978;49.118;12.146;2022-08-16T11:37:32;5.25;;;2.63;;
62024;SDS011;47978;49.118;12.146;2022-08-16T11:40:19;3.67;;;2.50;;
62024;SDS011;47978;49.118;12.146;2022-08-16T11:42:59;3.35;;;2.58;;
62024;SDS011;47978;49.118;12.146;2022-08-16T11:45:26;3.72;;;2.53;;
62024;SDS011;47978;49.118;12.146;2022-08-16T11:47:58;4.63;;;2.75;;
62024;SDS011;47978;49.118;12.146;2022-08-16T11:50:25;4.65;;;2.95;;
62024;SDS011;47978;49.118;12.146;2022-08-16T11:52:52;4.68;;;2.70;;
62024;SDS011;47978;49.118;12.146;2022-08-16T11:55:19;4.70;;;2.75;;
62024;SDS011;47978;49.118;12.146;2022-08-16T11:57:48;4.50;;;2.42;;
62024;SDS011;47978;49.118;12.146;2022-08-16T12:00:22;4.43;;;2.42;;
62024;SDS011;47978;49.118;12.146;2022-08-16T12:03:09;3.38;;;2.40;;
62024;SDS011;47978;49.118;12.146;2022-08-16T12:05:37;3.58;;;2.38;;
62024;SDS011;47978;49.118;12.146;2022-08-16T12:08:05;4.28;;;2.63;;
62024;SDS011;47978;49.118;12.146;2022-08-16T12:10:33;3.65;;;2.42;;
62024;SDS011;47978;49.118;12.146;2022-08-16T12:13:02;4.07;;;2.38;;
62024;SDS011;47978;49.118;12.146;2022-08-16T12:15:31;4.50;;;2.70;;
62024;SDS011;47978;49.118;12.146;2022-08-16T12:17:59;4.45;;;3.22;;
62024;SDS011;47978;49.118;12.146;2022-08-16T12:20:28;8.10;;;2.90;;
62024;SDS011;47978;49.118;12.146;2022-08-16T12:25:25;3.53;;;2.30;;
62024;SDS011;47978;49.118;12.146;2022-08-16T12:27:55;6.55;;;2.70;;
62024;SDS011;47978;49.118;12.146;2022-08-16T12:30:23;3.00;;;2.55;;
62024;SDS011;47978;49.118;12.146;2022-08-16T12:33:04;3.00;;;2.40;;
62024;SDS011;47978;49.118;12.146;2022-08-16T12:35:33;4.13;;;2.50;;
62024;SDS011;47978;49.118;12.146;2022-08-16T12:38:01;4.45;;;2.20;;
62024;SDS011;47978;49.118;12.146;2022-08-16T12:40:48;5.50;;;2.30;;
62024;SDS011;47978;49.118;12.146;2022-08-16T12:43:20;6.90;;;2.17;;
62024;SDS011;47978;49.118;12.146;2022-08-16T12:45:49;3.17;;;2.22;;
62024;SDS011;47978;49.118;12.146;2022-08-16T12:48:19;3.13;;;2.10;;
62024;SDS011;47978;49.118;12.146;2022-08-16T12:51:00;2.67;;;2.10;;
62024;SDS011;47978;49.118;12.146;2022-08-16T12:53:28;3.42;;;2.30;;
62024;SDS011;47978;49.118;12.146;2022-08-16T12:55:57;3.22;;;2.13;;
62024;SDS011;47978;49.118;12.146;2022-08-16T12:58:24;3.50;;;2.40;;
62024;SDS011;47978;49.118;12.146;2022-08-16T13:01:10;3.15;;;2.00;;
62024;SDS011;47978;49.118;12.146;2022-08-16T13:03:38;7.07;;;2.42;;
62024;SDS011;47978;49.118;12.146;2022-08-16T13:06:06;8.05;;;2.35;;
62024;SDS011;47978;49.118;12.146;2022-08-16T13:08:32;4.07;;;2.30;;
62024;SDS011;47978;49.118;12.146;2022-08-16T13:10:59;3.20;;;2.15;;
62024;SDS011;47978;49.118;12.146;2022-08-16T13:13:27;3.60;;;2.53;;
62024;SDS011;47978;49.118;12.146;2022-08-16T13:15:55;3.38;;;2.20;;
62024;SDS011;47978;49.118;12.146;2022-08-16T13:18:29;3.20;;;2.50;;
62024;SDS011;47978;49.118;12.146;2022-08-16T13:21:00;4.88;;;2.10;;
62024;SDS011;47978;49.118;12.146;2022-08-16T13:23:28;2.60;;;2.20;;
62024;SDS011;47978;49.118;12.146;2022-08-16T13:25:55;5.07;;;2.40;;
62024;SDS011;47978;49.118;12.146;2022-08-16T13:28:21;4.43;;;2.30;;
62024;SDS011;47978;49.118;12.146;2022-08-16T13:30:51;4.35;;;2.50;;
62024;SDS011;47978;49.118;12.146;2022-08-16T13:33:22;3.42;;;2.08;;
62024;SDS011;47978;49.118;12.146;2022-08-16T13:35:56;4.10;;;2.38;;
62024;SDS011;47978;49.118;12.146;2022-08-16T13:38:26;6.07;;;2.38;;
62024;SDS011;47978;49.118;12.146;2022-08-16T13:41:03;4.65;;;2.10;;
62024;SDS011;47978;49.118;12.146;2022-08-16T13:46:00;2.58;;;1.95;;
62024;SDS011;47978;49.118;12.146;2022-08-16T13:48:29;4.43;;;2.20;;
62024;SDS011;47978;49.118;12.146;2022-08-16T13:51:09;4.63;;;2.47;;
62024;SDS011;47978;49.118;12.146;2022-08-16T13:53:43;3.42;;;2.47;;
62024;SDS011;47978;49.118;12.146;2022-08-16T13:56:19;5.80;;;2.25;;
62024;SDS011;47978;49.118;12.146;2022-08-16T13:58:51;6.82;;;2.35;;
62024;SDS011;47978;49.118;12.146;2022-08-16T14:01:20;4.63;;;1.90;;
62024;SDS011;47978;49.118;12.146;2022-08-16T14:03:47;12.15;;;2.55;;
62024;SDS011;47978;49.118;12.146;2022-08-16T14:06:14;5.75;;;2.30;;
62024;SDS011;47978;49.118;12.146;2022-08-16T14:08:45;3.13;;;2.10;;
62024;SDS011;47978;49.118;12.146;2022-08-16T14:11:31;2.92;;;2.40;;
62024;SDS011;47978;49.118;12.146;2022-08-16T14:13:58;4.03;;;2.22;;
62024;SDS011;47978;49.118;12.146;2022-08-16T14:16:25;6.25;;;2.63;;
62024;SDS011;47978;49.118;12.146;2022-08-16T14:19:00;6.43;;;2.50;;
62024;SDS011;47978;49.118;12.146;2022-08-16T14:21:27;3.97;;;2.35;;
62024;SDS011;47978;49.118;12.146;2022-08-16T14:24:02;3.90;;;2.15;;
62024;SDS011;47978;49.118;12.146;2022-08-16T14:26:47;6.15;;;2.45;;
62024;SDS011;47978;49.118;12.146;2022-08-16T14:29:15;7.47;;;2.70;;
62024;SDS011;47978;49.118;12.146;2022-08-16T14:31:46;4.05;;;2.38;;
62024;SDS011;47978;49.118;12.146;2022-08-16T14:34:19;4.35;;;2.70;;
62024;SDS011;47978;49.118;12.146;2022-08-16T14:36:50;3.33;;;2.40;;
62024;SDS011;47978;49.118;12.146;2022-08-16T14:39:19;3.30;;;2.10;;
62024;SDS011;47978;49.118;12.146;2022-08-16T14:41:46;4.13;;;2.25;;
62024;SDS011;47978;49.118;12.146;2022-08-16T14:44:14;2.95;;;2.50;;
62024;SDS011;47978;49.118;12.146;2022-08-16T14:46:41;4.82;;;2.53;;
62024;SDS011;47978;49.118;12.146;2022-08-16T14:49:07;2.90;;;2.10;;
62024;SDS011;47978;49.118;12.146;2022-08-16T14:51:34;3.35;;;2.42;;
62024;SDS011;47978;49.118;12.146;2022-08-16T14:54:01;5.22;;;3.22;;
62024;SDS011;47978;49.118;12.146;2022-08-16T14:56:29;3.53;;;2.40;;
62024;SDS011;47978;49.118;12.146;2022-08-16T14:59:08;6.38;;;2.30;;
62024;SDS011;47978;49.118;12.146;2022-08-16T15:01:36;5.40;;;2.90;;
62024;SDS011;47978;49.118;12.146;2022-08-16T15:04:23;16.70;;;2.92;;
62024;SDS011;47978;49.118;12.146;2022-08-16T15:07:10;3.08;;;2.50;;
62024;SDS011;47978;49.118;12.146;2022-08-16T15:09:38;4.53;;;2.10;;
62024;SDS011;47978;49.118;12.146;2022-08-16T15:12:27;4.40;;;2.55;;
62024;SDS011;47978;49.118;12.146;2022-08-16T15:15:00;6.53;;;2.35;;
62024;SDS011;47978;49.118;12.146;2022-08-16T15:17:37;3.25;;;2.10;;
62024;SDS011;47978;49.118;12.146;2022-08-16T15:20:07;10.48;;;2.30;;
62024;SDS011;47978;49.118;12.146;2022-08-16T15:22:37;4.35;;;2.20;;
62024;SDS011;47978;49.118;12.146;2022-08-16T15:25:07;2.97;;;2.15;;